createdAt,value
2016-10-17T00:00:09.921Z,9.57
2016-10-17T00:01:09.948Z,9.56
2016-10-17T00:02:09.965Z,9.56
2016-10-17T00:03:09.984Z,9.46
2016-10-17T00:04:10.010Z,9.48
2016-10-17T00:05:10.030Z,9.47
2016-10-17T00:06:24.972Z,9.5
2016-10-17T00:07:10.077Z,9.39
2016-10-17T00:08:10.095Z,9.46
2016-10-17T00:09:25.032Z,9.47
2016-10-17T00:10:10.133Z,9.42
2016-10-17T00:11:10.159Z,9.5
2016-10-17T00:12:10.171Z,9.4
2016-10-17T00:13:10.189Z,9.43
2016-10-17T00:14:10.215Z,9.48
2016-10-17T00:15:10.233Z,9.47
2016-10-17T00:16:10.252Z,9.47
2016-10-17T00:17:10.275Z,9.42
2016-10-17T00:18:10.303Z,9.48
2016-10-17T00:19:10.318Z,9.47
2016-10-17T00:20:10.637Z,9.5
2016-10-17T00:21:10.354Z,9.5
2016-10-17T00:22:10.383Z,9.42
2016-10-17T00:23:10.403Z,9.46
2016-10-17T00:24:25.341Z,9.43
2016-10-17T00:25:10.442Z,9.46
2016-10-17T00:26:10.461Z,9.43
2016-10-17T00:27:10.488Z,9.56
2016-10-17T00:28:10.505Z,9.43
2016-10-17T00:29:10.521Z,9.46
2016-10-17T00:30:10.555Z,9.46
2016-10-17T00:31:10.563Z,9.4
2016-10-17T00:32:10.635Z,9.53
2016-10-17T00:33:10.599Z,9.4
2016-10-17T00:34:10.622Z,9.4
2016-10-17T00:35:10.660Z,9.46
2016-10-17T00:36:10.721Z,9.47
2016-10-17T00:37:10.698Z,9.46
2016-10-17T00:38:10.762Z,9.47
2016-10-17T00:39:25.652Z,9.46
2016-10-17T00:40:10.754Z,9.39
2016-10-17T00:41:10.826Z,9.42
2016-10-17T00:42:10.805Z,9.42
2016-10-17T00:43:10.811Z,9.42
2016-10-17T00:44:11.140Z,9.48
2016-10-17T00:45:10.859Z,9.47
2016-10-17T00:46:10.882Z,9.53
2016-10-17T00:47:10.944Z,9.47
2016-10-17T00:50:10.982Z,9.47
2016-10-17T00:51:10.993Z,9.42
2016-10-17T00:52:11.000Z,9.47
2016-10-17T00:53:11.023Z,9.47
2016-10-17T00:54:25.964Z,9.46
2016-10-17T00:55:11.112Z,9.47
2016-10-17T00:56:26.006Z,9.46
2016-10-17T00:57:11.113Z,9.57
2016-10-17T00:58:11.130Z,9.58
2016-10-17T00:59:11.145Z,9.56
2016-10-17T01:00:11.166Z,9.56
2016-10-17T01:02:11.209Z,9.46
2016-10-17T01:03:11.235Z,9.48
2016-10-17T01:04:11.256Z,9.36
2016-10-17T01:05:11.273Z,9.33
2016-10-17T01:06:11.288Z,9.39
2016-10-17T01:07:11.309Z,9.35
2016-10-17T01:08:11.582Z,9.43
2016-10-17T01:09:11.350Z,9.35
2016-10-17T01:10:11.374Z,9.38
2016-10-17T01:11:11.401Z,9.43
2016-10-17T01:12:26.338Z,9.4
2016-10-17T01:13:11.436Z,9.33
2016-10-17T01:14:11.458Z,9.29
2016-10-17T01:15:11.485Z,9.32
2016-10-17T01:16:11.496Z,9.36
2016-10-17T01:17:11.524Z,9.35
2016-10-17T01:18:11.544Z,9.38
2016-10-17T01:19:11.564Z,9.42
2016-10-17T01:20:11.608Z,9.4
2016-10-17T01:21:11.609Z,9.43
2016-10-17T01:22:11.627Z,9.28
2016-10-17T01:24:11.671Z,9.36
2016-10-17T01:25:11.687Z,9.32
2016-10-17T01:26:11.711Z,9.29
2016-10-17T01:27:26.650Z,9.29
2016-10-17T01:28:26.668Z,9.26
2016-10-17T01:29:11.768Z,9.36
2016-10-17T01:30:11.791Z,9.32
2016-10-17T01:31:11.810Z,9.31
2016-10-17T01:32:11.832Z,9.38
2016-10-17T01:33:11.852Z,9.39
2016-10-17T01:34:11.876Z,9.46
2016-10-17T01:36:12.461Z,9.29
2016-10-17T01:37:11.934Z,9.24
2016-10-17T01:38:11.954Z,9.31
2016-10-17T01:40:26.920Z,9.36
2016-10-17T01:41:26.941Z,9.24
2016-10-17T01:42:12.038Z,9.32
2016-10-17T01:43:12.057Z,9.35
2016-10-17T01:44:27.006Z,9.33
2016-10-17T01:45:12.097Z,9.31
2016-10-17T01:46:12.128Z,9.31
2016-10-17T01:47:12.147Z,9.33
2016-10-17T01:48:12.164Z,9.38
2016-10-17T01:49:12.184Z,9.23
2016-10-17T01:50:12.204Z,9.29
2016-10-17T01:51:12.225Z,9.28
2016-10-17T01:53:12.262Z,9.33
2016-10-17T01:54:12.287Z,9.24
2016-10-17T01:55:27.232Z,9.23
2016-10-17T01:56:12.340Z,9.29
2016-10-17T01:58:12.372Z,9.29
2016-10-17T01:59:27.314Z,9.31
2016-10-17T02:00:12.417Z,9.28
2016-10-17T02:01:12.439Z,9.29
2016-10-17T02:02:12.452Z,9.31
2016-10-17T02:03:12.476Z,9.23
2016-10-17T02:04:12.496Z,9.28
2016-10-17T02:05:12.508Z,9.26
2016-10-17T02:06:12.538Z,9.31
2016-10-17T02:07:12.556Z,9.31
2016-10-17T02:08:12.578Z,9.32
2016-10-17T02:09:12.611Z,9.32
2016-10-17T02:10:12.614Z,9.29
2016-10-17T02:11:12.644Z,9.23
2016-10-17T02:12:12.664Z,9.23
2016-10-17T02:13:12.686Z,9.32
2016-10-17T02:14:12.704Z,9.28
2016-10-17T02:15:12.722Z,9.33
2016-10-17T02:16:12.746Z,9.39
2016-10-17T02:17:12.759Z,9.31
2016-10-17T02:18:12.788Z,9.28
2016-10-17T02:19:12.806Z,9.33
2016-10-17T02:20:12.822Z,9.28
2016-10-17T02:21:12.849Z,9.36
2016-10-17T02:22:12.868Z,9.33
2016-10-17T02:23:12.885Z,9.29
2016-10-17T02:24:12.904Z,9.36
2016-10-17T02:25:12.926Z,9.33
2016-10-17T02:26:27.874Z,9.33
2016-10-17T02:27:12.968Z,9.26
2016-10-17T02:28:12.987Z,9.33
2016-10-17T02:29:13.025Z,9.31
2016-10-17T02:30:13.039Z,9.36
2016-10-17T02:31:27.977Z,9.38
2016-10-17T02:32:13.325Z,9.29
2016-10-17T02:33:13.396Z,9.33
2016-10-17T02:34:13.113Z,9.42
2016-10-17T02:35:13.445Z,9.28
2016-10-17T02:37:13.180Z,9.31
2016-10-17T02:38:13.199Z,9.23
2016-10-17T02:39:13.218Z,9.21
2016-10-17T02:40:13.240Z,9.2
2016-10-17T02:41:13.258Z,9.18
2016-10-17T02:42:13.279Z,9.11
2016-10-17T02:43:13.309Z,9.17
2016-10-17T02:44:13.329Z,9.23
2016-10-17T02:45:13.337Z,9.23
2016-10-17T02:46:13.363Z,9.26
2016-10-17T02:47:28.306Z,9.24
2016-10-17T02:48:13.405Z,9.23
2016-10-17T02:50:13.447Z,9.2
2016-10-17T02:51:13.466Z,9.23
2016-10-17T02:52:13.492Z,9.23
2016-10-17T02:54:13.527Z,9.26
2016-10-17T02:56:13.576Z,9.36
2016-10-17T02:57:13.593Z,9.28
2016-10-17T02:58:13.612Z,9.33
2016-10-17T02:59:13.647Z,9.24
2016-10-17T03:00:13.653Z,9.35
2016-10-17T03:02:28.615Z,9.2
2016-10-17T03:03:28.639Z,9.23
2016-10-17T03:04:13.746Z,9.17
2016-10-17T03:05:13.758Z,9.13
2016-10-17T03:06:13.773Z,9.21
2016-10-17T03:07:13.823Z,9.24
2016-10-17T03:08:13.819Z,9.13
2016-10-17T03:09:13.844Z,9.23
2016-10-17T03:10:13.861Z,9.14
2016-10-17T03:11:13.891Z,9.24
2016-10-17T03:12:13.915Z,9.13
2016-10-17T03:13:13.925Z,9.2
2016-10-17T03:14:13.949Z,9.15
2016-10-17T03:15:13.962Z,9.24
2016-10-17T03:16:13.989Z,9.2
2016-10-17T03:17:14.009Z,9.14
2016-10-17T03:18:14.026Z,9.23
2016-10-17T03:19:28.972Z,9.2
2016-10-17T03:20:14.073Z,9.17
2016-10-17T03:21:14.097Z,9.2
2016-10-17T03:22:14.111Z,9.1
2016-10-17T03:23:14.134Z,9.01
2016-10-17T03:24:14.162Z,9.02
2016-10-17T03:25:14.172Z,9.1
2016-10-17T03:26:14.192Z,9.04
2016-10-17T03:27:14.214Z,9.01
2016-10-17T03:28:14.230Z,9.01
2016-10-17T03:29:14.251Z,8.98
2016-10-17T03:30:29.201Z,8.99
2016-10-17T03:31:14.298Z,9.02
2016-10-17T03:32:14.465Z,9.14
2016-10-17T03:33:14.341Z,9.05
2016-10-17T03:35:14.930Z,8.96
2016-10-17T03:36:14.700Z,8.95
2016-10-17T03:37:14.420Z,8.99
2016-10-17T03:38:14.444Z,8.98
2016-10-17T03:39:14.459Z,8.95
2016-10-17T03:40:14.482Z,8.96
2016-10-17T03:41:14.808Z,9.02
2016-10-17T03:42:14.525Z,8.95
2016-10-17T03:43:14.548Z,9.04
2016-10-17T03:44:14.562Z,8.99
2016-10-17T03:45:14.582Z,8.94
2016-10-17T03:47:14.629Z,8.84
2016-10-17T03:48:14.650Z,8.87
2016-10-17T03:49:14.677Z,8.84
2016-10-17T03:50:14.694Z,8.83
2016-10-17T03:51:14.717Z,8.81
2016-10-17T03:52:14.732Z,8.86
2016-10-17T03:53:15.055Z,8.84
2016-10-17T03:54:14.778Z,8.87
2016-10-17T03:55:14.793Z,8.84
2016-10-17T03:56:14.809Z,8.91
2016-10-17T03:57:15.132Z,8.91
2016-10-17T03:58:14.866Z,8.84
2016-10-17T03:59:14.882Z,8.83
2016-10-17T04:00:14.893Z,8.91
2016-10-17T04:01:14.911Z,8.89
2016-10-17T04:02:14.937Z,8.77
2016-10-17T04:04:14.980Z,8.84
2016-10-17T04:05:15.300Z,8.83
2016-10-17T04:06:29.941Z,8.83
2016-10-17T04:07:15.037Z,8.77
2016-10-17T04:08:15.058Z,8.76
2016-10-17T04:09:15.075Z,8.73
2016-10-17T04:10:15.103Z,8.71
2016-10-17T04:11:15.118Z,8.71
2016-10-17T04:12:15.138Z,8.74
2016-10-17T04:13:15.156Z,8.66
2016-10-17T04:14:15.183Z,8.74
2016-10-17T04:15:15.905Z,8.81
2016-10-17T04:16:15.220Z,8.74
2016-10-17T04:17:15.544Z,8.71
2016-10-17T04:18:15.566Z,8.83
2016-10-17T04:20:15.607Z,8.73
2016-10-17T04:21:15.622Z,8.65
2016-10-17T04:22:30.268Z,8.7
2016-10-17T04:23:15.358Z,8.63
2016-10-17T04:24:15.386Z,8.66
2016-10-17T04:25:15.707Z,8.65
2016-10-17T04:26:15.427Z,8.55
2016-10-17T04:27:15.445Z,8.62
2016-10-17T04:28:15.468Z,8.55
2016-10-17T04:29:15.487Z,8.58
2016-10-17T04:30:15.507Z,8.5
2016-10-17T04:31:15.536Z,8.5
2016-10-17T04:32:15.549Z,8.52
2016-10-17T04:33:30.492Z,8.53
2016-10-17T04:35:15.615Z,8.5
2016-10-17T04:36:15.629Z,8.5
2016-10-17T04:37:15.644Z,8.58
2016-10-17T04:38:30.591Z,8.61
2016-10-17T04:39:15.696Z,8.58
2016-10-17T04:40:15.709Z,8.56
2016-10-17T04:41:15.728Z,8.62
2016-10-17T04:42:15.752Z,8.58
2016-10-17T04:43:16.017Z,8.62
2016-10-17T04:44:16.094Z,8.5
2016-10-17T04:45:15.864Z,8.53
2016-10-17T04:46:15.841Z,8.56
2016-10-17T04:47:16.101Z,8.52
2016-10-17T04:48:15.872Z,8.47
2016-10-17T04:49:15.901Z,8.48
2016-10-17T04:50:15.914Z,8.47
2016-10-17T04:51:15.935Z,8.41
2016-10-17T04:52:15.958Z,8.36
2016-10-17T04:53:15.975Z,8.41
2016-10-17T04:54:30.909Z,8.5
2016-10-17T04:55:16.013Z,8.47
2016-10-17T04:56:16.037Z,8.5
2016-10-17T04:57:16.352Z,8.53
2016-10-17T04:58:16.078Z,8.53
2016-10-17T04:59:16.096Z,8.5
2016-10-17T05:01:16.133Z,8.65
2016-10-17T05:03:16.174Z,8.56
2016-10-17T05:04:16.198Z,8.48
2016-10-17T05:05:31.139Z,8.43
2016-10-17T05:06:16.229Z,8.5
2016-10-17T05:07:16.275Z,8.43
2016-10-17T05:09:31.221Z,8.44
2016-10-17T05:10:16.323Z,8.43
2016-10-17T05:11:16.337Z,8.47
2016-10-17T05:12:16.356Z,8.41
2016-10-17T05:13:16.376Z,8.44
2016-10-17T05:14:16.399Z,8.41
2016-10-17T05:15:16.418Z,8.45
2016-10-17T05:16:16.454Z,8.47
2016-10-17T05:17:16.458Z,8.47
2016-10-17T05:18:16.479Z,8.43
2016-10-17T05:19:16.497Z,8.47
2016-10-17T05:20:31.439Z,8.41
2016-10-17T05:21:16.544Z,8.5
2016-10-17T05:22:16.552Z,8.44
2016-10-17T05:23:16.574Z,8.43
2016-10-17T05:24:16.595Z,8.5
2016-10-17T05:25:16.617Z,8.43
2016-10-17T05:26:16.637Z,8.47
2016-10-17T05:27:16.658Z,8.45
2016-10-17T05:28:16.676Z,8.43
2016-10-17T05:29:16.699Z,8.34
2016-10-17T05:30:16.715Z,8.34
2016-10-17T05:31:16.746Z,8.36
2016-10-17T05:32:16.755Z,8.25
2016-10-17T05:33:16.775Z,8.36
2016-10-17T05:35:16.814Z,8.26
2016-10-17T05:36:16.838Z,8.26
2016-10-17T05:37:16.869Z,8.34
2016-10-17T05:38:16.876Z,8.36
2016-10-17T05:39:17.216Z,8.33
2016-10-17T05:40:16.924Z,8.37
2016-10-17T05:41:31.856Z,8.26
2016-10-17T05:42:16.955Z,8.34
2016-10-17T05:43:16.979Z,8.33
2016-10-17T05:44:16.993Z,8.37
2016-10-17T05:45:17.024Z,8.33
2016-10-17T05:46:17.034Z,8.36
2016-10-17T05:47:17.056Z,8.37
2016-10-17T05:48:17.073Z,8.38
2016-10-17T05:49:17.110Z,8.34
2016-10-17T05:50:17.119Z,8.26
2016-10-17T05:51:17.141Z,8.36
2016-10-17T05:53:17.172Z,8.33
2016-10-17T05:54:17.193Z,8.37
2016-10-17T05:55:17.217Z,8.44
2016-10-17T05:56:17.237Z,8.45
2016-10-17T05:57:32.178Z,8.38
2016-10-17T05:58:17.272Z,8.4
2016-10-17T05:59:17.300Z,8.37
2016-10-17T06:00:17.313Z,8.38
2016-10-17T06:01:17.334Z,8.4
2016-10-17T06:02:17.358Z,8.43
2016-10-17T06:03:17.380Z,8.37
2016-10-17T06:04:17.399Z,8.43
2016-10-17T06:05:17.412Z,8.4
2016-10-17T06:06:17.435Z,8.34
2016-10-17T06:07:17.454Z,8.44
2016-10-17T06:08:17.472Z,8.36
2016-10-17T06:09:17.492Z,8.33
2016-10-17T06:11:17.534Z,8.37
2016-10-17T06:12:17.550Z,8.22
2016-10-17T06:13:32.495Z,8.25
2016-10-17T06:14:32.514Z,8.25
2016-10-17T06:15:17.619Z,8.26
2016-10-17T06:16:17.630Z,8.25
2016-10-17T06:17:17.649Z,8.36
2016-10-17T06:18:17.672Z,8.33
2016-10-17T06:19:17.694Z,8.36
2016-10-17T06:20:17.722Z,8.2
2016-10-17T06:21:17.735Z,8.26
2016-10-17T06:22:17.756Z,8.2
2016-10-17T06:23:17.778Z,8.22
2016-10-17T06:24:17.792Z,8.22
2016-10-17T06:25:32.737Z,8.19
2016-10-17T06:26:17.831Z,8.18
2016-10-17T06:27:17.851Z,8.12
2016-10-17T06:28:17.871Z,8.12
2016-10-17T06:29:32.813Z,8.12
2016-10-17T06:30:17.910Z,8.22
2016-10-17T06:31:17.936Z,8.19
2016-10-17T06:32:17.954Z,8.25
2016-10-17T06:33:17.972Z,8.25
2016-10-17T06:34:17.993Z,8.25
2016-10-17T06:35:18.013Z,8.3
2016-10-17T06:36:18.031Z,8.26
2016-10-17T06:37:18.051Z,8.23
2016-10-17T06:38:18.075Z,8.26
2016-10-17T06:39:18.085Z,8.3
2016-10-17T06:40:18.107Z,8.22
2016-10-17T06:41:18.131Z,8.22
2016-10-17T06:42:18.171Z,8.25
2016-10-17T06:43:18.166Z,8.23
2016-10-17T06:44:33.111Z,8.22
2016-10-17T06:45:18.207Z,8.34
2016-10-17T06:46:18.230Z,8.37
2016-10-17T06:47:18.255Z,8.34
2016-10-17T06:48:18.274Z,8.38
2016-10-17T06:49:18.588Z,8.34
2016-10-17T06:50:18.305Z,8.34
2016-10-17T06:51:18.333Z,8.28
2016-10-17T06:53:18.371Z,8.29
2016-10-17T06:54:18.391Z,8.25
2016-10-17T06:55:33.333Z,8.33
2016-10-17T06:56:18.736Z,8.33
2016-10-17T06:57:18.452Z,8.29
2016-10-17T06:58:18.474Z,8.25
2016-10-17T06:59:18.505Z,8.26
2016-10-17T07:00:18.510Z,8.34
2016-10-17T07:01:18.530Z,8.33
2016-10-17T07:02:18.546Z,8.34
2016-10-17T07:03:18.604Z,8.37
2016-10-17T07:04:18.585Z,8.44
2016-10-17T07:05:18.608Z,8.43
2016-10-17T07:06:18.635Z,8.37
2016-10-17T07:07:18.646Z,8.41
2016-10-17T07:08:18.660Z,8.43
2016-10-17T07:09:18.686Z,8.29
2016-10-17T07:10:18.703Z,8.43
2016-10-17T07:12:18.744Z,8.43
2016-10-17T07:13:33.691Z,8.43
2016-10-17T07:14:18.789Z,8.33
2016-10-17T07:15:18.807Z,8.2
2016-10-17T07:16:33.750Z,8.33
2016-10-17T07:17:18.851Z,8.38
2016-10-17T07:18:18.868Z,8.22
2016-10-17T07:20:18.904Z,8.33
2016-10-17T07:21:18.931Z,8.34
2016-10-17T07:22:18.957Z,8.2
2016-10-17T07:23:18.965Z,8.37
2016-10-17T07:24:18.982Z,8.36
2016-10-17T07:25:19.013Z,8.33
2016-10-17T07:26:19.025Z,8.33
2016-10-17T07:27:19.047Z,8.3
2016-10-17T07:28:33.989Z,8.28
2016-10-17T07:30:19.108Z,8.23
2016-10-17T07:31:19.126Z,8.26
2016-10-17T07:32:34.073Z,8.19
2016-10-17T07:33:19.172Z,8.29
2016-10-17T07:34:19.190Z,8.38
2016-10-17T07:35:19.207Z,8.36
2016-10-17T07:36:19.229Z,8.29
2016-10-17T07:37:19.249Z,8.33
2016-10-17T07:38:19.263Z,8.25
2016-10-17T07:39:19.293Z,8.26
2016-10-17T07:40:19.341Z,8.36
2016-10-17T07:41:19.329Z,8.36
2016-10-17T07:42:19.345Z,8.37
2016-10-17T07:43:34.291Z,8.44
2016-10-17T07:44:19.386Z,8.43
2016-10-17T07:45:19.412Z,8.44
2016-10-17T07:46:19.431Z,8.43
2016-10-17T07:47:19.852Z,8.44
2016-10-17T07:48:34.387Z,8.4
2016-10-17T07:49:19.484Z,8.52
2016-10-17T07:50:19.514Z,8.43
2016-10-17T07:51:19.529Z,8.44
2016-10-17T07:52:19.547Z,8.45
2016-10-17T07:53:19.569Z,8.44
2016-10-17T07:54:19.591Z,8.48
2016-10-17T07:55:19.604Z,8.45
2016-10-17T07:56:19.625Z,8.55
2016-10-17T07:57:19.896Z,8.5
2016-10-17T07:58:19.669Z,8.53
2016-10-17T07:59:19.685Z,8.5
2016-10-17T08:00:19.703Z,8.43
2016-10-17T08:02:19.746Z,8.29
2016-10-17T08:03:19.767Z,8.43
2016-10-17T08:04:34.708Z,8.45
2016-10-17T08:05:19.808Z,8.43
2016-10-17T08:06:19.826Z,8.4
2016-10-17T08:07:19.874Z,8.41
2016-10-17T08:08:19.874Z,8.36
2016-10-17T08:09:19.885Z,8.41
2016-10-17T08:10:19.935Z,8.45
2016-10-17T08:11:19.925Z,8.44
2016-10-17T08:12:19.939Z,8.48
2016-10-17T08:13:19.968Z,8.56
2016-10-17T08:14:19.986Z,8.55
2016-10-17T08:15:20.005Z,8.44
2016-10-17T08:16:20.021Z,8.53
2016-10-17T08:17:20.046Z,8.53
2016-10-17T08:19:35.009Z,8.63
2016-10-17T08:20:20.114Z,8.62
2016-10-17T08:21:20.131Z,8.68
2016-10-17T08:22:20.148Z,8.73
2016-10-17T08:23:20.167Z,8.73
2016-10-17T08:24:20.193Z,8.63
2016-10-17T08:25:20.214Z,8.65
2016-10-17T08:26:20.231Z,8.73
2016-10-17T08:27:20.250Z,8.63
2016-10-17T08:28:20.282Z,8.79
2016-10-17T08:29:35.214Z,8.89
2016-10-17T08:30:20.400Z,8.71
2016-10-17T08:31:35.253Z,8.63
2016-10-17T08:32:35.474Z,8.63
2016-10-17T08:33:35.595Z,8.71
2016-10-17T08:34:20.391Z,8.7
2016-10-17T08:35:35.331Z,8.62
2016-10-17T08:36:35.352Z,8.73
2016-10-17T08:37:20.455Z,8.63
2016-10-17T08:38:20.476Z,8.74
2016-10-17T08:39:20.487Z,8.77
2016-10-17T08:40:20.521Z,8.8
2016-10-17T08:41:20.533Z,8.84
2016-10-17T08:42:20.553Z,8.83
2016-10-17T08:43:20.570Z,8.87
2016-10-17T08:44:20.587Z,8.79
2016-10-17T08:45:20.618Z,8.86
2016-10-17T08:46:35.559Z,8.87
2016-10-17T08:47:20.656Z,8.84
2016-10-17T08:48:20.917Z,8.87
2016-10-17T08:49:20.690Z,8.94
2016-10-17T08:50:20.712Z,8.95
2016-10-17T08:51:35.652Z,9.05
2016-10-17T08:52:20.753Z,9.15
2016-10-17T08:53:20.776Z,9.18
2016-10-17T08:54:20.798Z,9.18
2016-10-17T08:55:20.820Z,9.08
2016-10-17T08:56:20.840Z,9.21
2016-10-17T08:57:20.850Z,9.15
2016-10-17T08:58:20.879Z,9.17
2016-10-17T08:59:20.899Z,9.13
2016-10-17T09:00:20.923Z,9.18
2016-10-17T09:01:20.936Z,9.14
2016-10-17T09:02:20.955Z,9.2
2016-10-17T09:03:20.976Z,9.23
2016-10-17T09:04:20.998Z,9.32
2016-10-17T09:05:21.020Z,9.33
2016-10-17T09:06:21.044Z,9.29
2016-10-17T09:07:35.982Z,9.31
2016-10-17T09:08:21.078Z,9.28
2016-10-17T09:09:21.096Z,9.23
2016-10-17T09:10:21.121Z,9.26
2016-10-17T09:11:21.143Z,9.31
2016-10-17T09:12:21.165Z,9.32
2016-10-17T09:13:21.179Z,9.29
2016-10-17T09:14:21.198Z,9.29
2016-10-17T09:15:21.222Z,9.38
2016-10-17T09:16:21.241Z,9.35
2016-10-17T09:17:21.270Z,9.38
2016-10-17T09:18:21.291Z,9.39
2016-10-17T09:19:21.305Z,9.39
2016-10-17T09:20:21.322Z,9.46
2016-10-17T09:21:21.352Z,9.35
2016-10-17T09:22:21.370Z,9.36
2016-10-17T09:23:36.308Z,9.35
2016-10-17T09:24:21.413Z,9.35
2016-10-17T09:25:21.432Z,9.48
2016-10-17T09:26:21.450Z,9.38
2016-10-17T09:27:21.475Z,9.4
2016-10-17T09:28:21.746Z,9.42
2016-10-17T09:29:21.514Z,9.5
2016-10-17T09:30:21.535Z,9.38
2016-10-17T09:31:21.556Z,9.56
2016-10-17T09:32:21.580Z,9.6
2016-10-17T09:33:21.600Z,9.46
2016-10-17T09:34:21.614Z,9.46
2016-10-17T09:35:21.886Z,9.48
2016-10-17T09:36:21.654Z,9.35
2016-10-17T09:37:21.717Z,9.46
2016-10-17T09:38:21.697Z,9.33
2016-10-17T09:39:36.636Z,9.46
2016-10-17T09:40:21.741Z,9.32
2016-10-17T09:41:21.765Z,9.38
2016-10-17T09:42:21.774Z,9.39
2016-10-17T09:43:21.798Z,9.46
2016-10-17T09:44:21.819Z,9.51
2016-10-17T09:45:21.861Z,9.47
2016-10-17T09:46:21.863Z,9.39
2016-10-17T09:48:36.831Z,9.43
2016-10-17T09:49:21.926Z,9.46
2016-10-17T09:50:21.949Z,9.4
2016-10-17T09:51:36.891Z,9.39
2016-10-17T09:52:21.995Z,9.4
2016-10-17T09:53:22.009Z,9.4
2016-10-17T09:54:36.954Z,9.33
2016-10-17T09:55:22.051Z,9.35
2016-10-17T09:56:22.080Z,9.35
2016-10-17T09:57:22.093Z,9.21
2016-10-17T09:58:22.110Z,9.28
2016-10-17T10:01:22.210Z,9.4
2016-10-17T10:02:22.196Z,9.33
2016-10-17T10:03:22.212Z,9.4
2016-10-17T10:04:22.239Z,9.46
2016-10-17T10:05:22.263Z,9.38
2016-10-17T10:06:22.274Z,9.47
2016-10-17T10:07:22.303Z,9.38
2016-10-17T10:09:22.341Z,9.43
2016-10-17T10:10:22.364Z,9.4
2016-10-17T10:11:37.298Z,9.6
2016-10-17T10:12:22.701Z,9.58
2016-10-17T10:13:22.419Z,9.64
2016-10-17T10:14:22.446Z,9.61
2016-10-17T10:15:22.464Z,9.6
2016-10-17T10:16:22.493Z,9.65
2016-10-17T10:17:22.503Z,9.72
2016-10-17T10:19:22.548Z,9.65
2016-10-17T10:20:22.560Z,9.68
2016-10-17T10:21:37.815Z,9.68
2016-10-17T10:22:22.603Z,9.71
2016-10-17T10:23:37.551Z,9.84
2016-10-17T10:24:22.687Z,9.81
2016-10-17T10:25:22.663Z,9.79
2016-10-17T10:26:37.611Z,9.74
2016-10-17T10:27:22.712Z,9.72
2016-10-17T10:28:22.732Z,9.71
2016-10-17T10:29:22.756Z,9.68
2016-10-17T10:30:22.774Z,9.69
2016-10-17T10:31:22.796Z,9.84
2016-10-17T10:32:22.810Z,9.83
2016-10-17T10:33:22.837Z,9.69
2016-10-17T10:34:22.861Z,9.71
2016-10-17T10:35:22.879Z,9.78
2016-10-17T10:36:22.900Z,9.84
2016-10-17T10:37:22.916Z,9.69
2016-10-17T10:38:22.944Z,9.75
2016-10-17T10:39:22.956Z,9.72
2016-10-17T10:40:37.904Z,9.79
2016-10-17T10:41:23.012Z,9.96
2016-10-17T10:42:37.945Z,9.9
2016-10-17T10:43:23.044Z,9.89
2016-10-17T10:44:23.064Z,9.86
2016-10-17T10:45:23.081Z,9.99
2016-10-17T10:46:23.144Z,9.96
2016-10-17T10:47:23.129Z,9.99
2016-10-17T10:48:23.153Z,9.91
2016-10-17T10:49:23.169Z,9.94
2016-10-17T10:51:23.211Z,10.04
2016-10-17T10:53:23.248Z,9.97
2016-10-17T10:54:23.273Z,9.93
2016-10-17T10:55:23.297Z,9.97
2016-10-17T10:56:23.319Z,10.01
2016-10-17T10:57:23.374Z,10.05
2016-10-17T10:58:38.279Z,9.97
2016-10-17T10:59:23.629Z,9.97
2016-10-17T11:00:23.402Z,9.9
2016-10-17T11:01:23.419Z,10.12
2016-10-17T11:02:23.444Z,9.97
2016-10-17T11:03:23.463Z,9.94
2016-10-17T11:04:23.496Z,10.02
2016-10-17T11:05:23.506Z,10.02
2016-10-17T11:06:23.531Z,10.08
2016-10-17T11:07:23.542Z,10.15
2016-10-17T11:08:23.567Z,10.23
2016-10-17T11:09:23.585Z,10.26
2016-10-17T11:10:23.610Z,10.25
2016-10-17T11:12:23.651Z,10.25
2016-10-17T11:13:23.668Z,10.15
2016-10-17T11:14:38.614Z,10.2
2016-10-17T11:15:23.713Z,10.22
2016-10-17T11:16:23.732Z,10.26
2016-10-17T11:17:23.754Z,10.18
2016-10-17T11:18:23.781Z,10.22
2016-10-17T11:19:23.807Z,10.22
2016-10-17T11:20:23.817Z,10.23
2016-10-17T11:21:23.845Z,10.17
2016-10-17T11:23:23.882Z,10.15
2016-10-17T11:24:23.903Z,10.22
2016-10-17T11:26:23.983Z,10.17
2016-10-17T11:27:38.890Z,10.15
2016-10-17T11:28:23.987Z,10.2
2016-10-17T11:29:38.930Z,10.25
2016-10-17T11:30:24.030Z,10.27
2016-10-17T11:31:24.055Z,10.4
2016-10-17T11:32:24.076Z,10.41
2016-10-17T11:33:24.094Z,10.47
2016-10-17T11:34:24.118Z,10.61
2016-10-17T11:35:24.133Z,10.4
2016-10-17T11:36:24.155Z,10.51
2016-10-17T11:37:24.175Z,10.59
2016-10-17T11:38:24.206Z,10.63
2016-10-17T11:39:24.220Z,10.66
2016-10-17T11:40:24.235Z,10.63
2016-10-17T11:41:24.268Z,10.56
2016-10-17T11:42:39.206Z,10.47
2016-10-17T11:43:24.309Z,10.53
2016-10-17T11:44:24.330Z,10.48
2016-10-17T11:45:24.379Z,10.42
2016-10-17T11:46:39.289Z,10.45
2016-10-17T11:47:24.389Z,10.4
2016-10-17T11:48:24.427Z,10.27
2016-10-17T11:49:24.436Z,10.18
2016-10-17T11:50:24.458Z,10.2
2016-10-17T11:51:24.476Z,10.17
2016-10-17T11:52:24.497Z,10.17
2016-10-17T11:53:24.522Z,10.18
2016-10-17T11:54:24.538Z,10.17
2016-10-17T11:55:24.557Z,10.17
2016-10-17T11:56:24.575Z,10.11
2016-10-17T11:57:24.604Z,10.12
2016-10-17T11:58:24.627Z,10.04
2016-10-17T11:59:24.650Z,10.18
2016-10-17T12:00:39.886Z,10.17
2016-10-17T12:01:39.611Z,10.23
2016-10-17T12:02:24.709Z,10.23
2016-10-17T12:03:24.730Z,10.22
2016-10-17T12:04:24.746Z,10.22
2016-10-17T12:05:24.773Z,10.22
2016-10-17T12:06:24.796Z,10.27
2016-10-17T12:07:24.812Z,10.26
2016-10-17T12:08:24.879Z,10.29
2016-10-17T12:09:24.856Z,10.3
2016-10-17T12:10:24.878Z,10.26
2016-10-17T12:12:24.918Z,10.15
2016-10-17T12:13:24.949Z,10.23
2016-10-17T12:15:25.584Z,10.17
2016-10-17T12:16:25.001Z,10.12
2016-10-17T12:17:39.952Z,10.17
2016-10-17T12:18:25.050Z,10.18
2016-10-17T12:19:25.069Z,10.12
2016-10-17T12:20:25.091Z,10.14
2016-10-17T12:21:25.115Z,10.23
2016-10-17T12:22:25.131Z,10.18
2016-10-17T12:23:25.156Z,10.17
2016-10-17T12:24:25.429Z,10.23
2016-10-17T12:25:25.198Z,10.12
2016-10-17T12:26:25.218Z,10.14
2016-10-17T12:27:25.232Z,10.22
2016-10-17T12:28:25.255Z,10.2
2016-10-17T12:30:25.305Z,10.17
2016-10-17T12:31:25.323Z,10.12
2016-10-17T12:32:25.375Z,10.22
2016-10-17T12:33:40.286Z,10.18
2016-10-17T12:34:25.393Z,10.2
2016-10-17T12:35:26.015Z,10.15
2016-10-17T12:36:25.423Z,10.14
2016-10-17T12:37:25.448Z,10.09
2016-10-17T12:38:25.473Z,10.25
2016-10-17T12:39:25.519Z,10.2
2016-10-17T12:41:25.538Z,10.15
2016-10-17T12:42:25.549Z,10.09
2016-10-17T12:43:25.582Z,10.2
2016-10-17T12:44:25.589Z,10.17
2016-10-17T12:46:25.635Z,10.18
2016-10-17T12:47:25.656Z,10.25
2016-10-17T12:48:25.674Z,10.23
2016-10-17T12:49:40.621Z,10.14
2016-10-17T12:50:25.728Z,10.07
2016-10-17T12:51:25.753Z,10.14
2016-10-17T12:52:25.760Z,10.17
2016-10-17T12:53:25.790Z,10.18
2016-10-17T12:54:25.804Z,10.11
2016-10-17T12:55:25.828Z,10.04
2016-10-17T12:56:25.850Z,10.2
2016-10-17T12:57:25.868Z,10.14
2016-10-17T12:58:25.896Z,10.17
2016-10-17T12:59:25.909Z,10.09
2016-10-17T13:00:26.238Z,10.15
2016-10-17T13:01:25.962Z,10.2
2016-10-17T13:02:25.984Z,10.25
2016-10-17T13:03:25.999Z,10.32
2016-10-17T13:04:40.943Z,10.26
2016-10-17T13:05:26.040Z,10.23
2016-10-17T13:06:26.056Z,10.27
2016-10-17T13:07:26.436Z,10.25
2016-10-17T13:08:26.144Z,10.26
2016-10-17T13:09:26.377Z,10.42
2016-10-17T13:11:26.168Z,10.29
2016-10-17T13:12:26.189Z,10.4
2016-10-17T13:13:26.209Z,10.47
2016-10-17T13:14:26.231Z,10.4
2016-10-17T13:15:26.249Z,10.44
2016-10-17T13:16:26.278Z,10.41
2016-10-17T13:17:26.296Z,10.36
2016-10-17T13:18:26.333Z,10.26
2016-10-17T13:19:26.343Z,10.23
2016-10-17T13:20:26.364Z,10.2
2016-10-17T13:21:26.384Z,10.23
2016-10-17T13:22:26.403Z,10.17
2016-10-17T13:23:26.426Z,10.11
2016-10-17T13:24:26.442Z,10.18
2016-10-17T13:25:26.463Z,10.08
2016-10-17T13:26:26.491Z,10.11
2016-10-17T13:27:26.506Z,10.05
2016-10-17T13:29:26.550Z,10.08
2016-10-17T13:30:26.610Z,10.02
2016-10-17T13:31:41.517Z,10.17
2016-10-17T13:32:26.612Z,10.04
2016-10-17T13:33:41.557Z,10.04
2016-10-17T13:34:26.659Z,9.97
2016-10-17T13:35:26.674Z,10.07
2016-10-17T13:36:41.622Z,10.05
2016-10-17T13:37:26.720Z,10.15
2016-10-17T13:38:26.739Z,10.09
2016-10-17T13:39:26.762Z,10.08
2016-10-17T13:40:26.778Z,10.15
2016-10-17T13:41:26.841Z,10.17
2016-10-17T13:42:26.826Z,10.18
2016-10-17T13:43:26.845Z,10.18
2016-10-17T13:44:26.868Z,10.18
2016-10-17T13:46:26.910Z,10.14
2016-10-17T13:47:26.934Z,10.05
2016-10-17T13:48:26.953Z,10.15
2016-10-17T13:49:26.977Z,10.05
2016-10-17T13:50:26.993Z,10.12
2016-10-17T13:51:27.019Z,10.09
2016-10-17T13:52:41.961Z,10.15
2016-10-17T13:53:27.063Z,10.27
2016-10-17T13:54:27.078Z,10.27
2016-10-17T13:55:27.109Z,10.27
2016-10-17T13:56:27.123Z,10.29
2016-10-17T13:57:27.143Z,10.17
2016-10-17T13:58:27.164Z,10.22
2016-10-17T13:59:27.190Z,10.23
2016-10-17T14:00:27.205Z,10.18
2016-10-17T14:01:27.276Z,10.12
2016-10-17T14:02:27.258Z,10.01
2016-10-17T14:03:27.273Z,10.08